Metairie, LA (70003)

5:36 PM CST on March 02, 2015 (GMT -0600)
DeSoto | Change Station
CLOSE
Current Station
Personal Weather Station
Location: Metairie, LA
Elevation: 7 ft
Nearby Weather Stations
Active Advisory: Dense Fog Advisory

Elev 7 ft 29.98 °N, 90.22 °W | Updated 1 second ago

Rain
Rain
72.9 °F
Feels Like 72.9 °F
N
4.5
Wind Variable Wind from East
Gusts 5.4 mph

Today
High -- | Low -- °F
--% Chance of Precip.
Yesterday
High -- | Low -- °F
Precip. -- in
6:25 AM 6:00 PM
Waxing Gibbous, 93% visible
Pressure 30.18 in
Visibility 6.0 miles
Clouds Few 1500 ft
Scattered Clouds 2300 ft
Mostly Cloudy 3500 ft
Mostly Cloudy 25000 ft
Dew Point 72 °F
Humidity 96%
Rainfall 0.61 in
Snow Depth Not available.
UV 0.0 out of 12
Pollen 7.80 out of 12
Air Quality Not available.
Flu Activity Not available.
SPECI KMSY 022329Z 06007KT 6SM BR FEW015TCU SCT023 BKN035 BKN250 21/19 A3018 RMK AO2 RAB2255E29 TCU E AND NW P0000 T02110189 $

More Conditions Fewer Conditions

Pressure 30.18 in
Visibility 6.0 miles
Clouds Few 1500 ft
Scattered Clouds 2300 ft
Mostly Cloudy 3500 ft
Mostly Cloudy 25000 ft
Dew Point 72 °F
Humidity 96%
Rainfall 0.61 in
Snow Depth Not available.
UV 0.0 out of 12
Pollen 7.80 out of 12
Air Quality Not available.
Flu Activity Not available.
SPECI KMSY 022329Z 06007KT 6SM BR FEW015TCU SCT023 BKN035 BKN250 21/19 A3018 RMK AO2 RAB2255E29 TCU E AND NW P0000 T02110189 $

More Conditions Fewer Conditions

10-Day Weather Forecast

Almanac

Astronomy

Mar. 02, 2015 Rise Set
Actual Time
Civil Twilight
Nautical Twilight
Astronomical Twilight
Moon
Length of Visible Light
Length of Day
Tomorrow will be .
, % of the Moon is Illuminated

Today's Extremes

State Highs State Lows

Community

WunderPhotos

Upload Photos

1,801,998 photos uploaded!

WunderBlogs® & News

Nearby

Air Quality

  Air Quality AQ Index Pollutant
Not available.

Snow Depth

Station Depth Elevation

Earthquake Activity

City Distance Mag. Time & Date
Minimum magnitude displayed is 2.5.

Coastal Water Temperatures

Place Temperature

Nearby Weather Stations

Dense Fog Advisory
Statement as of 3:20 PM CST on March 02, 2015

... Dense fog advisory in effect from 9 PM this evening to 9 am
CST Tuesday...

The National Weather Service in New Orleans has issued a dense
fog advisory... which is in effect from 9 PM this evening to 9 am
CST Tuesday.

* Visibility... one quarter mile or less.

* Duration... tonight through mid morning Tuesday

* impacts... reduced visibilities on area roadways could cause
hazardous driving conditions through Tuesday morning.

Precautionary/preparedness actions...

A dense fog advisory means visibilities will frequently be
reduced to less than one quarter mile. If driving... slow down...
use your headlights... and leave plenty of distance ahead of you.



Dm/mjh